Glendale, Minnesota
Current Conditions -  °F | °C
As of 6:13 AM on Thursday 29 Jan 2015 (Local Time) from KORB Reporting Station
Overcast Overcast  
Wind Chill:   Ceiling: 1100
Heat Index: 21°   Visibility: 10mi
Dew Point: 16°   Wind: 14mph
Humidity: 80%   Direction: 320°NW
Pressure: 30"   Gusts: 24mph
Location:  48.1455°N, 92.8504°W
Report Text: KORB 291213Z AUTO 32012G21KT 10SM OVC011 M06/M09 A3000 RMK AO2
Loading
Personal Weather Stations






























Interactive Weather Map New forecast layout! Learn more

10-Day Weather Forecast

Advertisements
Track Severe Weather on mobile